Time;durP1;ratioP1;P1;durP2;ratioP2;P2;SDS_P1;SDS_P2;PMS_P1;PMS_P2;Temp;Humidity;BMP_temperature;BMP_pressure;BME280_temperature;BME280_humidity;BME280_pressure;Samples;Min_cycle;Max_cycle;Signal;HPM_P1;HPM_P2
2023/12/16 00:02:20;;;;;;;24.15;16.90;;;;;;;0.38;100.00;98078.31;5095264;28;20520;-66
2023/12/16 00:04:45;;;;;;;21.65;16.77;;;;;;;0.35;100.00;98075.75;5094402;28;20032;-66
2023/12/16 00:07:11;;;;;;;28.65;19.00;;;;;;;0.33;100.00;98080.06;5093311;28;20024;-66
2023/12/16 00:09:36;;;;;;;34.30;22.95;;;;;;;0.33;100.00;98064.53;5097180;28;20027;-66
2023/12/16 00:12:02;;;;;;;38.20;22.98;;;;;;;0.34;100.00;98069.72;5087575;28;20103;-65
2023/12/16 00:14:28;;;;;;;37.78;23.35;;;;;;;0.33;100.00;98069.72;5103133;28;20039;-65
2023/12/16 00:16:53;;;;;;;31.60;22.45;;;;;;;0.28;100.00;98060.28;5087987;28;20417;-66
2023/12/16 00:19:19;;;;;;;27.48;20.17;;;;;;;0.32;100.00;98068.88;5091555;28;20044;-66
2023/12/16 00:21:44;;;;;;;30.80;19.85;;;;;;;0.26;100.00;98059.44;5089632;28;20024;-65
2023/12/16 00:24:09;;;;;;;29.27;21.23;;;;;;;0.28;100.00;98043.88;5089285;28;20380;-65
2023/12/16 00:26:35;;;;;;;29.45;20.73;;;;;;;0.27;100.00;98044.75;5092622;28;20027;-66
2023/12/16 00:29:00;;;;;;;25.55;18.13;;;;;;;0.18;100.00;98048.31;5088657;28;20085;-66
2023/12/16 00:31:26;;;;;;;24.63;17.92;;;;;;;0.11;100.00;98044.06;5089346;28;20024;-65
2023/12/16 00:33:51;;;;;;;27.83;18.95;;;;;;;0.12;100.00;98031.13;5088707;28;20450;-65
2023/12/16 00:36:16;;;;;;;49.85;24.88;;;;;;;0.18;100.00;98030.19;5092552;28;20092;-66
2023/12/16 00:38:42;;;;;;;41.85;21.75;;;;;;;0.23;100.00;98032.72;5095893;28;20020;-66
2023/12/16 00:41:07;;;;;;;46.10;24.48;;;;;;;0.30;100.00;98028.28;5090880;28;20107;-66
2023/12/16 00:43:33;;;;;;;39.40;23.13;;;;;;;0.39;100.00;98041.16;5094842;28;20027;-66
2023/12/16 00:45:58;;;;;;;37.00;23.95;;;;;;;0.38;100.00;98044.63;5085430;28;20063;-66
2023/12/16 00:48:24;;;;;;;46.20;24.40;;;;;;;0.41;100.00;98034.19;5102266;28;20188;-65
2023/12/16 00:50:49;;;;;;;40.15;23.80;;;;;;;0.43;100.00;98024.66;5091747;28;20565;-66
2023/12/16 00:53:15;;;;;;;41.67;21.85;;;;;;;0.47;100.00;98026.31;5092317;28;20024;-66
2023/12/16 00:55:40;;;;;;;29.27;17.50;;;;;;;0.54;100.00;98017.56;5086232;28;20128;-66
2023/12/16 00:58:07;;;;;;;26.10;15.15;;;;;;;0.61;100.00;98012.31;5090523;28;20028;-66
2023/12/16 01:00:32;;;;;;;25.40;16.23;;;;;;;0.65;100.00;98016.56;5085881;28;20050;-66
2023/12/16 01:03:00;;;;;;;22.92;14.00;;;;;;;0.63;100.00;98020.94;5084923;28;20012;-66
2023/12/16 01:05:26;;;;;;;30.98;22.05;;;;;;;0.63;100.00;98026.13;5088371;28;20034;-66
2023/12/16 01:07:51;;;;;;;38.90;26.48;;;;;;;0.65;100.00;98024.34;5093647;28;20111;-65
2023/12/16 01:10:17;;;;;;;36.72;28.20;;;;;;;0.71;100.00;98021.66;5093715;28;20031;-65
2023/12/16 01:12:42;;;;;;;29.08;20.73;;;;;;;0.75;100.00;98030.25;5088153;28;20024;-66
2023/12/16 01:15:08;;;;;;;49.88;27.98;;;;;;;0.75;100.00;98033.69;5076959;28;20102;-66
2023/12/16 01:17:33;;;;;;;32.65;24.15;;;;;;;0.77;100.00;98033.69;5089558;28;20019;-66
2023/12/16 01:19:59;;;;;;;18.95;15.82;;;;;;;0.76;100.00;98037.16;5088943;28;20032;-65
2023/12/16 01:22:24;;;;;;;20.35;14.80;;;;;;;0.80;100.00;98039.69;5088554;28;20040;-66
2023/12/16 01:24:50;;;;;;;15.93;12.73;;;;;;;0.79;100.00;98037.09;5102339;28;20019;-66
2023/12/16 01:27:16;;;;;;;14.30;11.35;;;;;;;0.82;100.00;98037.94;5090841;28;20016;-66
2023/12/16 01:29:41;;;;;;;17.60;11.48;;;;;;;0.88;100.00;98036.94;5088246;28;20035;-65
2023/12/16 01:32:07;;;;;;;17.73;14.43;;;;;;;0.89;100.00;98030.91;5084466;28;20543;-66
2023/12/16 01:34:33;;;;;;;27.63;19.83;;;;;;;0.88;100.00;98036.09;5090827;28;20031;-66
2023/12/16 01:36:58;;;;;;;21.35;13.82;;;;;;;0.85;100.00;98031.81;5092100;28;20020;-66
2023/12/16 01:39:24;;;;;;;13.13;10.35;;;;;;;0.84;100.00;98032.69;5085779;28;20067;-66
2023/12/16 01:41:50;;;;;;;20.98;16.63;;;;;;;0.87;100.00;98034.41;5058807;28;20035;-66
2023/12/16 01:44:15;;;;;;;17.23;14.63;;;;;;;0.79;100.00;98050.06;5083959;28;20138;-65
2023/12/16 01:46:41;;;;;;;10.15;8.27;;;;;;;0.78;100.00;98045.75;5086388;28;20047;-66
2023/12/16 01:49:07;;;;;;;8.73;7.18;;;;;;;0.69;100.00;98049.34;5090001;28;20024;-66
2023/12/16 01:51:33;;;;;;;9.75;8.20;;;;;;;0.62;100.00;98047.75;5085639;28;20443;-65
2023/12/16 01:54:00;;;;;;;10.80;8.00;;;;;;;0.54;100.00;98048.69;5093800;28;20016;-66
2023/12/16 01:56:28;;;;;;;11.63;7.55;;;;;;;0.49;100.00;98049.66;5103415;28;20075;-66
2023/12/16 01:58:54;;;;;;;8.70;7.47;;;;;;;0.47;100.00;98054.00;5091427;28;20052;-66
2023/12/16 02:01:20;;;;;;;8.57;7.70;;;;;;;0.41;100.00;98055.78;5090313;28;20070;-66
2023/12/16 02:03:47;;;;;;;6.15;5.55;;;;;;;0.34;100.00;98061.94;5087911;28;20028;-66
2023/12/16 02:06:14;;;;;;;5.10;4.53;;;;;;;0.37;100.00;98041.16;5089504;28;20031;-66
2023/12/16 02:08:40;;;;;;;4.78;4.38;;;;;;;0.41;100.00;98047.16;5100953;28;20016;-66
2023/12/16 02:11:10;;;;;;;3.88;3.58;;;;;;;0.43;100.00;98045.41;5080978;28;20755;-65
2023/12/16 02:13:40;;;;;;;3.97;3.58;;;;;;;0.45;100.00;98038.47;5088067;28;20435;-66
2023/12/16 02:16:06;;;;;;;4.00;3.67;;;;;;;0.48;100.00;98037.56;5091333;28;20016;-65
2023/12/16 02:18:31;;;;;;;5.05;3.83;;;;;;;0.47;100.00;98035.84;5086236;28;20587;-66
2023/12/16 02:20:57;;;;;;;5.90;4.35;;;;;;;0.46;100.00;98034.16;5093408;28;20019;-65
2023/12/16 02:23:22;;;;;;;6.30;5.30;;;;;;;0.27;100.00;98031.81;5104907;28;20016;-65
2023/12/16 02:25:48;;;;;;;7.30;5.38;;;;;;;0.16;100.00;98034.53;5083497;28;20046;-65
2023/12/16 02:28:13;;;;;;;6.88;5.60;;;;;;;0.21;100.00;98024.09;5083984;28;20590;-66
2023/12/16 02:30:39;;;;;;;6.25;5.65;;;;;;;0.13;100.00;98024.22;5093238;28;20052;-65
2023/12/16 02:33:04;;;;;;;6.97;6.18;;;;;;;0.11;100.00;98028.53;5093276;28;20425;-65
2023/12/16 02:35:30;;;;;;;10.63;7.95;;;;;;;0.06;100.00;98025.16;5085671;28;20028;-65
2023/12/16 02:37:55;;;;;;;7.30;5.85;;;;;;;-0.06;100.00;98034.81;5068466;28;20115;-65
2023/12/16 02:40:20;;;;;;;8.30;6.28;;;;;;;-0.14;100.00;98034.03;5075143;28;20102;-66
2023/12/16 02:42:46;;;;;;;7.07;6.35;;;;;;;-0.19;100.00;98025.47;5087844;28;20037;-66
2023/12/16 02:45:11;;;;;;;7.20;6.50;;;;;;;-0.20;100.00;98028.91;5087353;28;20052;-65
2023/12/16 02:47:37;;;;;;;7.45;6.60;;;;;;;-0.22;100.00;98028.09;5091569;28;20599;-66
2023/12/16 02:50:03;;;;;;;8.27;7.57;;;;;;;-0.25;100.00;98028.13;5089671;28;20098;-66
2023/12/16 02:52:30;;;;;;;9.32;7.90;;;;;;;-0.25;100.00;98041.06;5090277;28;20025;-66
2023/12/16 02:54:55;;;;;;;7.18;6.47;;;;;;;-0.25;100.00;98041.91;5087908;28;20102;-66
2023/12/16 02:57:21;;;;;;;6.95;6.28;;;;;;;-0.26;100.00;98060.06;5084492;28;20028;-66
2023/12/16 02:59:46;;;;;;;7.82;6.55;;;;;;;-0.28;100.00;98061.81;5089795;28;20012;-66
2023/12/16 03:02:12;;;;;;;5.32;4.82;;;;;;;-0.27;100.00;98060.94;5093712;28;20029;-66
2023/12/16 03:04:37;;;;;;;7.60;4.85;;;;;;;-0.24;100.00;98071.25;5085417;28;20028;-66
2023/12/16 03:07:03;;;;;;;13.05;4.55;;;;;;;-0.21;100.00;98074.69;5071527;28;20078;-65
2023/12/16 03:09:29;;;;;;;4.55;4.25;;;;;;;-0.24;100.00;98073.84;5093863;28;20024;-65
2023/12/16 03:11:54;;;;;;;5.10;4.40;;;;;;;-0.32;100.00;98086.88;5093829;28;20031;-66
2023/12/16 03:14:20;;;;;;;6.50;5.90;;;;;;;-0.33;100.00;98073.09;5097812;28;20020;-66
2023/12/16 03:16:45;;;;;;;7.28;6.05;;;;;;;-0.28;100.00;98077.34;5097809;28;20435;-66
2023/12/16 03:19:11;;;;;;;6.03;5.45;;;;;;;-0.29;100.00;98073.91;5085797;28;20055;-65
2023/12/16 03:21:37;;;;;;;5.93;5.32;;;;;;;-0.25;100.00;98079.91;5102641;28;20031;-66
2023/12/16 03:24:03;;;;;;;6.60;5.75;;;;;;;-0.24;100.00;98068.69;5098250;28;20096;-65
2023/12/16 03:26:29;;;;;;;6.25;5.75;;;;;;;-0.26;100.00;98068.69;5090584;28;20027;-65
2023/12/16 03:28:55;;;;;;;7.10;6.05;;;;;;;-0.25;100.00;98056.59;5093604;28;20013;-65
2023/12/16 03:31:21;;;;;;;6.43;5.82;;;;;;;-0.25;100.00;98057.44;5089434;28;20076;-65
2023/12/16 03:33:46;;;;;;;7.60;5.78;;;;;;;-0.20;100.00;98060.00;5080895;28;20100;-66
2023/12/16 03:36:12;;;;;;;7.03;6.35;;;;;;;-0.26;100.00;98060.06;5088890;28;20044;-66
2023/12/16 03:38:37;;;;;;;7.00;6.30;;;;;;;-0.24;100.00;98061.75;5095381;28;20438;-66
2023/12/16 03:41:04;;;;;;;6.03;5.53;;;;;;;-0.26;100.00;98060.06;5097524;28;20055;-65
2023/12/16 03:43:29;;;;;;;6.57;5.93;;;;;;;-0.33;100.00;98046.31;5094417;28;20102;-65
2023/12/16 03:45:55;;;;;;;7.05;6.20;;;;;;;-0.42;100.00;98034.34;5095654;28;20051;-65
2023/12/16 03:48:20;;;;;;;7.10;6.40;;;;;;;-0.52;100.00;98030.16;5080010;28;20417;-65
2023/12/16 03:50:46;;;;;;;7.80;6.00;;;;;;;-0.52;100.00;98028.41;5083224;28;20446;-65
2023/12/16 03:53:11;;;;;;;9.32;5.80;;;;;;;-0.47;100.00;98023.19;5090326;28;20040;-66
2023/12/16 03:55:36;;;;;;;6.68;6.07;;;;;;;-0.46;100.00;98027.47;5090390;28;20028;-66
2023/12/16 03:58:02;;;;;;;6.82;6.03;;;;;;;-0.45;100.00;98022.28;5092417;28;20029;-66
2023/12/16 04:00:27;;;;;;;7.63;6.38;;;;;;;-0.61;100.00;98021.59;5087582;28;20088;-66
2023/12/16 04:02:53;;;;;;;6.38;5.80;;;;;;;-0.68;100.00;98026.84;5093565;28;20385;-66
2023/12/16 04:05:18;;;;;;;6.28;5.72;;;;;;;-0.74;100.00;98027.78;5080360;28;20024;-66
2023/12/16 04:07:44;;;;;;;6.53;5.93;;;;;;;-0.73;100.00;98035.50;5079172;28;20020;-66
2023/12/16 04:10:10;;;;;;;6.85;6.15;;;;;;;-0.75;100.00;98045.00;5087634;28;20023;-66
2023/12/16 04:12:35;;;;;;;6.00;5.50;;;;;;;-0.77;100.00;98048.50;5086430;28;20032;-66
2023/12/16 04:15:01;;;;;;;6.63;6.00;;;;;;;-0.77;100.00;98058.84;5096759;28;20081;-66
2023/12/16 04:17:26;;;;;;;10.98;6.22;;;;;;;-0.87;100.00;98061.50;5096380;28;20024;-66
2023/12/16 04:19:53;;;;;;;6.00;5.60;;;;;;;-0.85;100.00;98061.50;5095965;28;20036;-66
2023/12/16 04:22:19;;;;;;;7.05;6.35;;;;;;;-0.85;100.00;98065.78;5099996;28;20024;-66
2023/12/16 04:24:45;;;;;;;6.80;6.20;;;;;;;-0.91;100.00;98072.75;5096006;28;20102;-66
2023/12/16 04:27:10;;;;;;;7.32;6.43;;;;;;;-0.88;100.00;98064.97;5096920;28;20032;-65
2023/12/16 04:29:36;;;;;;;9.00;6.38;;;;;;;-0.94;100.00;98083.13;5093045;28;20020;-65
2023/12/16 04:32:02;;;;;;;8.75;7.53;;;;;;;-0.92;100.00;98086.56;5095370;28;20027;-66
2023/12/16 04:34:28;;;;;;;8.30;6.75;;;;;;;-0.97;100.00;98083.16;5079438;28;20028;-66
2023/12/16 04:36:53;;;;;;;7.45;6.80;;;;;;;-0.97;100.00;98085.72;5093844;28;20048;-66
2023/12/16 04:39:19;;;;;;;9.82;7.05;;;;;;;-0.96;100.00;98090.03;5096103;28;20028;-66
2023/12/16 04:41:44;;;;;;;8.20;7.40;;;;;;;-0.93;100.00;98094.31;5096817;28;20032;-66
2023/12/16 04:44:10;;;;;;;7.63;6.20;;;;;;;-0.90;100.00;98096.88;5086265;28;20028;-66
2023/12/16 04:46:35;;;;;;;7.35;6.45;;;;;;;-0.92;100.00;98088.25;5092799;28;20039;-66
2023/12/16 04:49:01;;;;;;;6.15;5.65;;;;;;;-1.01;100.00;98086.59;5095692;28;20107;-66
2023/12/16 04:51:29;;;;;;;7.20;6.60;;;;;;;-1.09;100.00;98093.56;5096088;28;20327;-66
2023/12/16 04:53:56;;;;;;;8.38;6.53;;;;;;;-1.10;100.00;98084.09;5095470;28;20115;-65
2023/12/16 04:56:22;;;;;;;7.53;6.82;;;;;;;-1.09;100.00;98070.28;5096160;28;20033;-66
2023/12/16 04:58:47;;;;;;;8.27;7.53;;;;;;;-1.09;100.00;98076.34;5094253;28;20036;-66
2023/12/16 05:01:13;;;;;;;11.77;8.50;;;;;;;-1.08;100.00;98074.59;5087694;28;20069;-66
2023/12/16 05:03:40;;;;;;;18.50;14.07;;;;;;;-1.09;100.00;98073.75;5095510;28;20020;-66
2023/12/16 05:06:06;;;;;;;12.65;11.13;;;;;;;-1.09;100.00;98072.88;5096098;28;20049;-66
2023/12/16 05:08:31;;;;;;;19.80;16.60;;;;;;;-1.16;100.00;98070.34;5094171;28;20502;-66
2023/12/16 05:10:56;;;;;;;14.02;9.68;;;;;;;-1.19;100.00;98065.22;5096124;28;20012;-66
2023/12/16 05:13:22;;;;;;;13.43;11.10;;;;;;;-1.22;100.00;98072.13;5095225;28;20099;-66
2023/12/16 05:15:48;;;;;;;12.50;10.43;;;;;;;-1.17;100.00;98075.53;5095567;28;20023;-65
2023/12/16 05:18:13;;;;;;;10.85;9.90;;;;;;;-1.21;100.00;98069.53;5090839;28;20043;-66
2023/12/16 05:20:38;;;;;;;10.40;9.20;;;;;;;-1.27;100.00;98077.31;5083593;28;20024;-66
2023/12/16 05:23:04;;;;;;;11.73;10.02;;;;;;;-1.30;100.00;98074.75;5085173;28;20028;-66
2023/12/16 05:25:30;;;;;;;10.60;9.07;;;;;;;-1.29;100.00;98076.47;5082640;28;20024;-66
2023/12/16 05:27:57;;;;;;;11.55;10.20;;;;;;;-1.30;100.00;98064.41;5093965;28;20065;-66
2023/12/16 05:30:23;;;;;;;12.05;9.05;;;;;;;-1.33;100.00;98062.72;5076798;28;20103;-66
2023/12/16 05:32:48;;;;;;;9.38;8.48;;;;;;;-1.31;100.00;98062.69;5086659;28;20055;-66
2023/12/16 05:35:14;;;;;;;10.73;9.45;;;;;;;-1.34;100.00;98067.88;5092138;28;20027;-66
2023/12/16 05:37:40;;;;;;;10.73;9.60;;;;;;;-1.35;100.00;98061.00;5094872;28;20362;-66
2023/12/16 05:40:06;;;;;;;13.05;9.88;;;;;;;-1.40;100.00;98068.78;5094862;28;20023;-66
2023/12/16 05:42:31;;;;;;;10.90;9.00;;;;;;;-1.41;100.00;98061.88;5085862;28;20059;-66
2023/12/16 05:44:57;;;;;;;14.65;12.32;;;;;;;-1.39;100.00;98065.31;5075114;28;20092;-66
2023/12/16 05:47:22;;;;;;;13.93;12.43;;;;;;;-1.42;100.00;98062.75;5092099;28;20024;-65
2023/12/16 05:49:48;;;;;;;35.58;20.13;;;;;;;-1.42;100.00;98074.84;5070059;28;20020;-66
2023/12/16 05:52:14;;;;;;;27.17;17.05;;;;;;;-1.40;100.00;98078.28;5076002;28;20536;-65
2023/12/16 05:54:39;;;;;;;37.28;20.00;;;;;;;-1.48;100.00;98075.72;5079978;28;20024;-66
2023/12/16 05:57:04;;;;;;;42.50;22.95;;;;;;;-1.54;100.00;98071.44;5095175;28;20056;-66
2023/12/16 05:59:30;;;;;;;48.00;22.08;;;;;;;-1.52;100.00;98077.47;5086978;28;20104;-66
2023/12/16 06:01:55;;;;;;;42.33;20.48;;;;;;;-1.54;100.00;98078.34;5076510;28;20031;-66
2023/12/16 06:04:21;;;;;;;43.13;20.67;;;;;;;-1.59;100.00;98084.38;5085268;28;20035;-66
2023/12/16 06:06:47;;;;;;;37.83;19.63;;;;;;;-1.58;100.00;98080.94;5110420;28;20020;-66
2023/12/16 06:09:12;;;;;;;35.72;18.30;;;;;;;-1.59;100.00;98074.03;5076116;28;20054;-66
2023/12/16 06:11:38;;;;;;;31.55;16.17;;;;;;;-1.60;100.00;98087.84;5093240;28;20020;-66
2023/12/16 06:14:03;;;;;;;28.05;15.40;;;;;;;-1.52;100.00;98081.78;5094130;28;20012;-66
2023/12/16 06:16:29;;;;;;;27.25;17.27;;;;;;;-1.52;100.00;98076.63;5092697;28;20020;-66
2023/12/16 06:18:54;;;;;;;30.27;17.33;;;;;;;-1.53;100.00;98085.25;5093130;28;20059;-66
2023/12/16 06:21:20;;;;;;;25.77;14.18;;;;;;;-1.52;100.00;98086.97;5097652;28;20027;-66
2023/12/16 06:23:45;;;;;;;22.02;14.57;;;;;;;-1.52;100.00;98094.72;5094436;28;20027;-66
2023/12/16 06:26:10;;;;;;;23.25;12.70;;;;;;;-1.53;100.00;98096.41;5094461;28;20066;-65
2023/12/16 06:28:36;;;;;;;20.08;11.93;;;;;;;-1.52;100.00;98108.47;5090917;28;20043;-66
2023/12/16 06:31:01;;;;;;;16.80;11.98;;;;;;;-1.51;100.00;98106.75;5092056;28;20027;-66
2023/12/16 06:33:27;;;;;;;15.98;12.32;;;;;;;-1.50;100.00;98116.22;5087638;28;20028;-65
2023/12/16 06:35:52;;;;;;;16.20;11.75;;;;;;;-1.51;100.00;98120.53;5102687;28;20031;-65
2023/12/16 06:38:17;;;;;;;11.30;8.93;;;;;;;-1.52;100.00;98131.72;5096550;28;20031;-66
2023/12/16 06:40:43;;;;;;;16.60;9.90;;;;;;;-1.53;100.00;98130.00;5081007;28;20489;-66
2023/12/16 06:43:08;;;;;;;13.55;9.50;;;;;;;-1.49;100.00;98131.69;5080263;28;20038;-66
2023/12/16 06:45:34;;;;;;;11.00;7.68;;;;;;;-1.44;100.00;98123.94;5109155;28;20032;-66
2023/12/16 06:48:00;;;;;;;16.95;9.38;;;;;;;-1.48;100.00;98128.25;5098564;28;20050;-66
2023/12/16 06:50:26;;;;;;;21.58;15.88;;;;;;;-1.49;100.00;98131.69;5097830;28;20054;-66
2023/12/16 06:52:51;;;;;;;10.35;9.27;;;;;;;-1.50;100.00;98139.47;5100668;28;20059;-65
2023/12/16 06:55:17;;;;;;;15.15;12.68;;;;;;;-1.50;100.00;98135.16;5092582;28;20023;-66
2023/12/16 06:57:43;;;;;;;20.42;16.88;;;;;;;-1.45;100.00;98138.56;5075082;28;20027;-66
2023/12/16 07:00:09;;;;;;;16.70;14.32;;;;;;;-1.46;100.00;98146.34;5097607;28;20430;-66
2023/12/16 07:02:36;;;;;;;15.10;11.98;;;;;;;-1.47;100.00;98137.72;5091066;28;20056;-66
2023/12/16 07:05:02;;;;;;;13.80;12.50;;;;;;;-1.48;100.00;98136.00;5087497;28;20043;-66
2023/12/16 07:07:28;;;;;;;13.73;11.80;;;;;;;-1.47;100.00;98140.31;5106705;28;20028;-66
2023/12/16 07:09:54;;;;;;;11.20;10.05;;;;;;;-1.46;100.00;98141.19;5099611;28;20024;-66
2023/12/16 07:12:19;;;;;;;10.50;9.40;;;;;;;-1.48;100.00;98140.34;5094775;28;20020;-66
2023/12/16 07:14:44;;;;;;;12.38;10.73;;;;;;;-1.48;100.00;98138.59;5094892;28;20028;-66
2023/12/16 07:17:10;;;;;;;15.95;13.77;;;;;;;-1.44;100.00;98144.63;5103256;28;20055;-66
2023/12/16 07:19:35;;;;;;;14.98;13.13;;;;;;;-1.41;100.00;98143.75;5102640;28;20093;-66
2023/12/16 07:22:01;;;;;;;14.73;12.35;;;;;;;-1.41;100.00;98141.16;5082731;28;20062;-66
2023/12/16 07:24:27;;;;;;;17.65;15.40;;;;;;;-1.46;100.00;98142.03;5106657;28;20028;-66
2023/12/16 07:26:52;;;;;;;18.00;16.17;;;;;;;-1.41;100.00;98143.75;5102931;28;20024;-65
2023/12/16 07:29:18;;;;;;;20.83;18.45;;;;;;;-1.40;100.00;98132.53;5095658;28;20020;-66
2023/12/16 07:31:50;;;;;;;22.13;19.90;;;;;;;-1.35;100.00;98141.97;5109662;28;20106;-66
2023/12/16 07:34:16;;;;;;;20.20;18.20;;;;;;;-1.32;100.00;98135.94;5101347;28;20113;-66
2023/12/16 07:36:42;;;;;;;20.15;18.02;;;;;;;-1.27;100.00;98136.75;5099949;28;20451;-66
2023/12/16 07:39:08;;;;;;;19.90;18.00;;;;;;;-1.20;100.00;98143.63;5097211;28;20024;-66
2023/12/16 07:41:34;;;;;;;20.88;17.20;;;;;;;-1.12;100.00;98142.72;5089454;28;20028;-66
2023/12/16 07:44:00;;;;;;;16.42;14.70;;;;;;;-1.08;100.00;98136.66;5094222;28;20154;-66
2023/12/16 07:46:26;;;;;;;14.45;13.07;;;;;;;-1.06;100.00;98134.91;5072101;28;20039;-66
2023/12/16 07:48:51;;;;;;;14.60;13.10;;;;;;;-1.03;100.00;98140.06;5087113;28;20027;-66
2023/12/16 07:51:17;;;;;;;15.23;13.82;;;;;;;-0.97;100.00;98134.00;5094448;28;20028;-66
2023/12/16 07:53:46;;;;;;;16.30;14.38;;;;;;;-0.91;100.00;98140.00;5100190;28;20115;-66
2023/12/16 07:56:22;;;;;;;15.20;13.70;;;;;;;-0.86;100.00;98145.13;5068084;28;20031;-66
2023/12/16 07:58:51;;;;;;;13.20;11.75;;;;;;;-0.82;100.00;98133.03;5091129;28;20094;-66
2023/12/16 08:01:18;;;;;;;24.00;20.85;;;;;;;-0.79;100.00;98139.03;5098770;28;20107;-65
2023/12/16 08:03:44;;;;;;;25.42;21.20;;;;;;;-0.78;100.00;98135.59;5099305;28;20031;-66
2023/12/16 08:06:10;;;;;;;30.70;25.27;;;;;;;-0.74;100.00;98142.44;5094011;28;20392;-66
2023/12/16 08:08:39;;;;;;;26.13;21.70;;;;;;;-0.67;100.00;98134.63;5098129;28;20139;-66
2023/12/16 08:11:05;;;;;;;17.15;14.30;;;;;;;-0.68;100.00;98143.25;5097853;28;20108;-66
2023/12/16 08:13:31;;;;;;;15.85;14.20;;;;;;;-0.66;100.00;98139.81;5104651;28;20057;-66
2023/12/16 08:15:56;;;;;;;14.35;10.55;;;;;;;-0.61;100.00;98142.38;5092104;28;20516;-66
2023/12/16 08:18:22;;;;;;;12.27;9.75;;;;;;;-0.55;100.00;98144.88;5095651;28;20071;-66
2023/12/16 08:20:48;;;;;;;12.77;11.48;;;;;;;-0.47;100.00;98140.50;5098325;27;20025;-66
2023/12/16 08:23:13;;;;;;;13.85;12.60;;;;;;;-0.40;100.00;98148.22;5090860;28;20032;-66
2023/12/16 08:25:39;;;;;;;13.45;9.25;;;;;;;-0.33;100.00;98148.16;5098677;28;20032;-66
2023/12/16 08:28:04;;;;;;;10.27;9.27;;;;;;;-0.29;100.00;98143.78;5097088;28;20035;-66
2023/12/16 08:30:30;;;;;;;18.38;13.70;;;;;;;-0.29;100.00;98143.78;5083628;28;20028;-66
2023/12/16 08:32:55;;;;;;;10.30;9.18;;;;;;;-0.28;100.00;98139.50;5089541;28;20028;-66
2023/12/16 08:35:21;;;;;;;9.38;8.57;;;;;;;-0.23;100.00;98135.97;5092145;28;20031;-66
2023/12/16 08:37:46;;;;;;;11.77;9.07;;;;;;;-0.15;100.00;98135.88;5100357;28;20027;-66
2023/12/16 08:40:12;;;;;;;10.27;9.27;;;;;;;-0.09;100.00;98135.84;5092300;28;20067;-66
2023/12/16 08:42:42;;;;;;;11.30;10.27;;;;;;;0.00;100.00;98129.72;5095000;28;20060;-66
2023/12/16 08:45:08;;;;;;;11.43;9.18;;;;;;;0.09;100.00;98136.50;5093579;28;20032;-66
2023/12/16 08:47:34;;;;;;;10.90;9.77;;;;;;;0.21;100.00;98138.09;5093384;28;20095;-66
2023/12/16 08:49:59;;;;;;;11.75;10.00;;;;;;;0.21;100.00;98138.09;5080583;28;20054;-66
2023/12/16 08:52:26;;;;;;;9.93;8.93;;;;;;;0.32;100.00;98137.97;5099456;28;20081;-66
2023/12/16 08:54:52;;;;;;;11.38;9.05;;;;;;;0.37;100.00;98143.97;5079402;28;20440;-66
2023/12/16 08:57:17;;;;;;;11.32;8.52;;;;;;;0.37;100.00;98139.63;5095904;28;20045;-67
2023/12/16 08:59:42;;;;;;;12.07;9.65;;;;;;;0.44;100.00;98145.59;5087948;28;20028;-66
2023/12/16 09:02:08;;;;;;;13.02;9.80;;;;;;;0.48;100.00;98149.88;5090284;28;21524;-65
2023/12/16 09:04:33;;;;;;;15.02;9.88;;;;;;;0.54;100.00;98152.38;5066113;28;20049;-65
2023/12/16 09:06:59;;;;;;;11.82;10.65;;;;;;;0.53;100.00;98145.47;5082703;28;20484;-64
2023/12/16 09:09:24;;;;;;;14.50;12.60;;;;;;;0.52;100.00;98142.94;5090076;28;20031;-65
2023/12/16 09:11:49;;;;;;;15.70;13.15;;;;;;;0.55;100.00;98145.47;5092898;28;20392;-65
2023/12/16 09:14:15;;;;;;;11.80;10.27;;;;;;;0.57;100.00;98146.31;5092245;28;20652;-66
2023/12/16 09:16:40;;;;;;;12.77;9.93;;;;;;;0.49;100.00;98143.81;5083176;28;20032;-66
2023/12/16 09:19:07;;;;;;;11.73;10.48;;;;;;;0.52;100.00;98146.38;5097625;28;20511;-65
2023/12/16 09:21:33;;;;;;;12.10;10.93;;;;;;;0.59;100.00;98157.53;5087058;28;20051;-65
2023/12/16 09:23:59;;;;;;;12.05;10.75;;;;;;;0.62;100.00;98156.63;5090934;28;20028;-65
2023/12/16 09:26:25;;;;;;;10.13;9.13;;;;;;;0.69;100.00;98155.66;5094719;28;20071;-65
2023/12/16 09:28:51;;;;;;;14.15;11.40;;;;;;;0.78;100.00;98159.88;5087986;28;20012;-65
2023/12/16 09:31:17;;;;;;;14.85;12.77;;;;;;;0.91;100.00;98163.16;5088792;28;20450;-64
2023/12/16 09:33:42;;;;;;;18.60;13.13;;;;;;;1.12;100.00;98170.63;5084835;28;20055;-66
2023/12/16 09:36:16;;;;;;;13.20;11.85;;;;;;;1.50;100.00;98175.28;5086618;28;20030;-65
2023/12/16 09:38:42;;;;;;;12.00;10.65;;;;;;;1.86;100.00;98173.78;5087826;28;20034;-64
2023/12/16 09:41:22;;;;;;;15.40;12.00;;;;;;;2.03;100.00;98188.22;5088838;28;20039;-64
2023/12/16 09:43:52;;;;;;;11.40;10.18;;;;;;;1.99;100.00;98197.81;5088014;28;20115;-64
2023/12/16 09:46:29;;;;;;;35.85;25.70;;;;;;;1.89;100.00;98206.66;5080425;28;20063;-64
2023/12/16 09:48:54;;;;;;;26.83;18.13;;;;;;;1.80;100.00;98219.78;5085955;28;20121;-64
2023/12/16 09:51:21;;;;;;;60.55;36.83;;;;;;;1.86;100.00;98219.69;5097641;28;20032;-65
2023/12/16 09:53:48;;;;;;;16.17;13.00;;;;;;;1.84;100.00;98226.66;5092630;28;20027;-64
2023/12/16 09:56:15;;;;;;;12.38;10.98;;;;;;;1.91;100.00;98220.50;5094886;28;20032;-65
2023/12/16 09:58:44;;;;;;;12.15;11.07;;;;;;;2.10;100.00;98213.22;5091854;28;20040;-64
2023/12/16 10:01:10;;;;;;;12.60;10.25;;;;;;;2.52;100.00;98220.22;5085002;28;20062;-64
2023/12/16 10:03:40;;;;;;;12.93;11.00;;;;;;;2.82;100.00;98214.47;5090651;28;20556;-64
2023/12/16 10:06:07;;;;;;;12.15;9.63;;;;;;;3.01;100.00;98218.38;5087183;28;20054;-65
2023/12/16 10:08:36;;;;;;;10.27;9.27;;;;;;;3.17;100.00;98219.78;5087588;28;20028;-63
2023/12/16 10:11:03;;;;;;;18.55;14.38;;;;;;;3.32;100.00;98227.28;5088778;28;20051;-65
2023/12/16 10:13:31;;;;;;;11.07;8.23;;;;;;;3.42;100.00;98222.72;5091347;28;20530;-65
2023/12/16 10:15:57;;;;;;;9.95;9.05;;;;;;;3.52;100.00;98225.97;5084755;28;20032;-66
2023/12/16 10:18:23;;;;;;;6.97;6.28;;;;;;;3.69;100.00;98226.44;5089940;28;20040;-66
2023/12/16 10:20:49;;;;;;;6.65;5.85;;;;;;;3.89;100.00;98217.28;5087478;28;20101;-66
2023/12/16 10:23:15;;;;;;;7.03;6.13;;;;;;;3.70;100.00;98209.91;5091417;28;20040;-65
2023/12/16 10:25:41;;;;;;;14.23;12.73;;;;;;;3.64;100.00;98202.22;5092503;28;20412;-66
2023/12/16 10:28:07;;;;;;;10.27;6.28;;;;;;;3.92;100.00;98191.13;5090677;28;20047;-66
2023/12/16 10:30:33;;;;;;;7.45;5.70;;;;;;;4.22;100.00;98191.22;5077700;28;20025;-65
2023/12/16 10:33:06;;;;;;;25.92;23.13;;;;;;;4.29;100.00;98184.94;5082678;28;20031;-65
2023/12/16 10:35:32;;;;;;;8.88;7.53;;;;;;;4.46;100.00;98185.38;5086071;28;20028;-66
2023/12/16 10:37:58;;;;;;;11.38;10.20;;;;;;;4.43;100.00;98171.53;5094072;28;20023;-66
2023/12/16 10:40:24;;;;;;;5.20;4.80;;;;;;;4.61;100.00;98165.81;5094651;28;20488;-63
2023/12/16 10:42:49;;;;;;;5.55;5.05;;;;;;;4.75;100.00;98160.22;5090782;28;20039;-66
2023/12/16 10:45:15;;;;;;;6.10;5.55;;;;;;;5.05;100.00;98142.78;5089898;28;20024;-66
2023/12/16 10:47:41;;;;;;;5.22;4.70;;;;;;;5.43;100.00;98145.06;5094277;28;20032;-63
2023/12/16 10:50:07;;;;;;;4.85;4.25;;;;;;;5.34;100.00;98124.47;5093317;28;20624;-63
2023/12/16 10:52:47;;;;;;;6.80;5.25;;;;;;;5.56;100.00;98116.78;5095088;28;20028;-63
2023/12/16 10:55:22;;;;;;;5.90;5.03;;;;;;;5.68;100.00;98107.66;5081537;28;20020;-64
2023/12/16 10:57:53;;;;;;;5.28;4.88;;;;;;;5.77;100.00;98102.16;5087673;28;20388;-64
2023/12/16 11:00:22;;;;;;;4.95;4.15;;;;;;;5.74;100.00;98095.25;5092707;28;20028;-64
2023/12/16 11:03:02;;;;;;;4.40;4.00;;;;;;;5.40;100.00;98091.16;5094142;28;20070;-63
2023/12/16 11:05:34;;;;;;;3.63;3.42;;;;;;;5.61;100.00;98093.13;5094675;28;20042;-64
2023/12/16 11:08:01;;;;;;;4.60;3.30;;;;;;;5.48;100.00;98087.44;5090600;28;20146;-63
2023/12/16 11:10:31;;;;;;;4.72;4.32;;;;;;;5.21;100.00;98080.47;5086698;28;20103;-64
2023/12/16 11:13:02;;;;;;;4.18;3.83;;;;;;;5.28;100.00;98091.56;5082218;28;20510;-66
2023/12/16 11:15:33;;;;;;;6.47;4.70;;;;;;;5.48;100.00;98079.59;5090196;28;20046;-65